createdAt,value
2018-07-14T00:01:30.904Z,5.87
2018-07-14T00:04:04.724Z,5.77
2018-07-14T00:06:37.180Z,3.17
2018-07-14T00:09:11.454Z,3.40
2018-07-14T00:11:45.230Z,4.17
2018-07-14T00:14:19.132Z,5.10
2018-07-14T00:16:52.959Z,4.03
2018-07-14T00:19:26.880Z,3.47
2018-07-14T00:22:00.676Z,4.73
2018-07-14T00:24:32.909Z,6.63
2018-07-14T00:27:08.585Z,4.97
2018-07-14T00:29:42.460Z,7.07
2018-07-14T00:32:17.167Z,3.02
2018-07-14T00:34:50.344Z,4.83
2018-07-14T00:37:24.377Z,3.80
2018-07-14T00:39:58.144Z,4.13
2018-07-14T00:42:30.560Z,6.30
2018-07-14T00:45:05.415Z,4.87
2018-07-14T00:47:39.056Z,6.20
2018-07-14T00:50:13.542Z,4.67
2018-07-14T00:52:47.399Z,5.07
2018-07-14T00:55:21.071Z,4.37
2018-07-14T00:57:54.998Z,4.67
2018-07-14T01:00:28.903Z,3.33
2018-07-14T01:03:03.619Z,4.63
2018-07-14T01:05:37.754Z,4.67
2018-07-14T01:08:11.432Z,3.97
2018-07-14T01:10:47.497Z,6.43
2018-07-14T01:13:19.910Z,4.85
2018-07-14T01:15:53.531Z,4.65
2018-07-14T01:18:27.909Z,8.45
2018-07-14T01:21:01.774Z,5.10
2018-07-14T01:23:35.536Z,5.93
2018-07-14T01:26:09.529Z,8.03
2018-07-14T01:28:43.236Z,5.30
2018-07-14T01:31:17.346Z,5.13
2018-07-14T01:33:51.093Z,5.03
2018-07-14T01:36:25.028Z,5.37
2018-07-14T01:38:58.827Z,5.92
2018-07-14T01:41:32.500Z,3.50
2018-07-14T01:44:06.034Z,5.07
2018-07-14T01:46:40.003Z,6.93
2018-07-14T01:49:26.714Z,5.00
2018-07-14T01:52:01.009Z,6.03
2018-07-14T01:54:34.259Z,8.00
2018-07-14T01:57:07.895Z,6.13
2018-07-14T01:59:40.140Z,7.27
2018-07-14T02:02:13.969Z,6.00
2018-07-14T02:04:48.420Z,5.07
2018-07-14T02:07:22.442Z,4.73
2018-07-14T02:09:56.417Z,6.25
2018-07-14T02:12:30.552Z,4.33
2018-07-14T02:15:05.066Z,6.83
2018-07-14T02:30:48.825Z,6.90
2018-07-14T02:33:22.618Z,4.70
2018-07-14T02:35:56.848Z,5.77
2018-07-14T02:38:30.405Z,5.70
2018-07-14T02:41:10.912Z,3.80
2018-07-14T02:43:49.821Z,5.97
2018-07-14T02:46:23.726Z,5.20
2018-07-14T02:48:58.489Z,10.40
2018-07-14T02:51:39.617Z,8.03
2018-07-14T02:54:13.328Z,5.53
2018-07-14T02:56:47.896Z,5.22
2018-07-14T02:59:22.183Z,4.58
2018-07-14T03:01:56.953Z,6.93
2018-07-14T03:04:41.596Z,5.27
2018-07-14T03:07:15.902Z,5.23
2018-07-14T03:09:56.890Z,6.03
2018-07-14T03:12:31.065Z,6.03
2018-07-14T03:15:05.075Z,4.90
2018-07-14T03:17:38.732Z,5.33
2018-07-14T03:20:12.756Z,5.10
2018-07-14T03:22:48.094Z,6.65
2018-07-14T03:25:21.971Z,4.10
2018-07-14T03:28:03.572Z,5.70
2018-07-14T03:30:35.980Z,5.30
2018-07-14T03:33:09.695Z,5.43
2018-07-14T03:35:43.626Z,9.83
2018-07-14T03:38:17.532Z,5.40
2018-07-14T03:40:52.226Z,4.92
2018-07-14T03:43:30.557Z,6.70
2018-07-14T03:46:07.312Z,8.28
2018-07-14T03:49:12.795Z,6.87
2018-07-14T03:51:47.759Z,7.95
2018-07-14T03:54:39.201Z,4.67
2018-07-14T03:57:13.236Z,6.40
2018-07-14T03:59:47.116Z,5.33
2018-07-14T04:02:20.792Z,7.05
2018-07-14T04:05:01.647Z,7.15
2018-07-14T04:07:40.887Z,5.35
2018-07-14T04:10:15.841Z,5.67
2018-07-14T04:12:49.435Z,8.20
2018-07-14T04:15:23.054Z,5.37
2018-07-14T04:18:05.903Z,5.80
2018-07-14T04:20:40.075Z,5.70
2018-07-14T04:23:13.767Z,5.53
2018-07-14T04:25:47.571Z,5.65
2018-07-14T04:28:21.610Z,5.10
2018-07-14T04:30:55.647Z,6.42
2018-07-14T04:33:29.258Z,5.30
2018-07-14T04:36:03.039Z,5.22
2018-07-14T04:38:37.405Z,5.67
2018-07-14T04:41:11.084Z,5.15
2018-07-14T04:43:45.658Z,5.50
2018-07-14T04:46:20.203Z,5.57
2018-07-14T04:48:53.900Z,6.50
2018-07-14T04:51:28.185Z,7.55
2018-07-14T04:54:02.305Z,5.67
2018-07-14T04:56:36.292Z,5.60
2018-07-14T04:59:10.420Z,7.78
2018-07-14T05:01:44.642Z,6.35
2018-07-14T05:04:19.340Z,7.85
2018-07-14T05:06:53.681Z,6.92
2018-07-14T05:09:28.334Z,8.40
2018-07-14T05:12:02.046Z,4.40
2018-07-14T05:14:36.822Z,7.67
2018-07-14T05:17:09.669Z,8.25
2018-07-14T05:19:43.537Z,7.57
2018-07-14T05:22:18.530Z,10.32
2018-07-14T05:24:52.157Z,5.75
2018-07-14T05:27:25.483Z,6.17
2018-07-14T05:29:59.398Z,6.53
2018-07-14T05:32:32.919Z,8.23
2018-07-14T05:35:06.967Z,3.65
2018-07-14T05:37:40.984Z,5.67
2018-07-14T05:40:15.232Z,7.33
2018-07-14T05:42:49.334Z,6.40
2018-07-14T05:45:23.362Z,7.00
2018-07-14T05:47:57.381Z,5.58
2018-07-14T05:50:30.086Z,5.96
2018-07-14T05:53:04.086Z,6.30
2018-07-14T05:55:38.165Z,6.95
2018-07-14T05:58:12.185Z,5.83
2018-07-14T06:00:45.583Z,3.93
2018-07-14T06:03:19.603Z,6.25
2018-07-14T06:05:53.587Z,5.42
2018-07-14T06:08:27.762Z,7.78
2018-07-14T06:11:02.191Z,5.33
2018-07-14T06:13:36.463Z,4.78
2018-07-14T06:16:10.412Z,5.62
2018-07-14T06:18:45.167Z,6.53
2018-07-14T06:21:19.186Z,5.15
2018-07-14T06:23:53.918Z,5.87
2018-07-14T06:26:27.938Z,6.17
2018-07-14T06:29:01.957Z,4.47
2018-07-14T06:31:35.463Z,9.40
2018-07-14T06:34:09.597Z,8.13
2018-07-14T06:36:42.736Z,7.05
2018-07-14T06:39:16.567Z,7.60
2018-07-14T06:41:48.842Z,4.70
2018-07-14T06:44:22.785Z,7.77
2018-07-14T06:46:58.082Z,5.80
2018-07-14T06:49:32.284Z,6.50
2018-07-14T06:52:06.362Z,6.15
2018-07-14T06:54:40.179Z,5.45
2018-07-14T06:57:12.394Z,5.43
2018-07-14T06:59:47.450Z,5.87
2018-07-14T07:02:22.439Z,7.25
2018-07-14T07:04:56.869Z,6.93
2018-07-14T07:07:30.570Z,6.30
2018-07-14T07:10:04.579Z,7.83
2018-07-14T07:12:40.694Z,9.78
2018-07-14T07:15:14.792Z,5.62
2018-07-14T07:17:48.873Z,7.35
2018-07-14T07:20:22.873Z,7.17
2018-07-14T07:22:55.317Z,6.33
2018-07-14T07:25:28.974Z,7.67
2018-07-14T07:28:02.263Z,9.38
2018-07-14T07:30:36.448Z,6.42
2018-07-14T07:33:11.244Z,5.85
2018-07-14T07:35:44.664Z,6.87
2018-07-14T07:38:18.911Z,7.97
2018-07-14T07:40:52.632Z,5.33
2018-07-14T07:43:27.357Z,5.10
2018-07-14T07:45:59.455Z,5.33
2018-07-14T07:48:33.608Z,7.40
2018-07-14T07:51:07.521Z,5.28
2018-07-14T07:53:39.954Z,8.85
2018-07-14T07:56:14.182Z,6.60
2018-07-14T07:58:49.536Z,5.15
2018-07-14T08:01:23.461Z,7.17
2018-07-14T08:03:58.011Z,5.80
2018-07-14T08:06:30.483Z,10.75
2018-07-14T08:09:02.864Z,6.27
2018-07-14T08:11:35.133Z,7.30
2018-07-14T08:14:12.766Z,8.20
2018-07-14T08:16:46.980Z,6.05
2018-07-14T08:19:21.222Z,6.70
2018-07-14T08:21:54.860Z,8.03
2018-07-14T08:24:27.496Z,9.80
2018-07-14T08:26:59.778Z,6.67
2018-07-14T08:29:34.388Z,6.55
2018-07-14T08:32:08.155Z,8.15
2018-07-14T08:34:40.590Z,8.13
2018-07-14T08:37:15.561Z,7.42
2018-07-14T08:39:50.745Z,11.48
2018-07-14T08:42:24.795Z,7.12
2018-07-14T08:44:57.286Z,9.20
2018-07-14T08:47:31.215Z,7.05
2018-07-14T08:50:05.610Z,6.75
2018-07-14T08:52:39.954Z,7.28
2018-07-14T08:55:14.004Z,9.83
2018-07-14T08:57:47.694Z,8.08
2018-07-14T09:00:21.296Z,8.38
2018-07-14T09:02:55.564Z,7.50
2018-07-14T09:05:27.888Z,6.95
2018-07-14T09:08:01.958Z,5.58
2018-07-14T09:10:35.689Z,7.57
2018-07-14T09:13:10.661Z,12.30
2018-07-14T09:15:43.570Z,13.30
2018-07-14T09:18:17.403Z,6.93
2018-07-14T09:20:51.826Z,7.37
2018-07-14T09:56:07.540Z,11.83
2018-07-14T09:58:41.351Z,12.03
2018-07-14T10:01:14.921Z,9.07
2018-07-14T10:03:49.189Z,6.73
2018-07-14T10:06:23.440Z,9.43
2018-07-14T10:08:57.155Z,10.13
2018-07-14T10:11:31.201Z,8.40
2018-07-14T10:14:04.778Z,10.80
2018-07-14T10:16:40.362Z,9.50
2018-07-14T10:19:14.696Z,7.67
2018-07-14T10:21:48.336Z,10.77
2018-07-14T10:24:21.834Z,7.53
2018-07-14T10:26:56.946Z,10.37
2018-07-14T10:29:31.312Z,10.03
2018-07-14T10:32:05.429Z,8.80
2018-07-14T10:34:39.404Z,8.30
2018-07-14T10:37:13.440Z,7.53
2018-07-14T10:39:45.640Z,8.15
2018-07-14T10:42:19.340Z,9.97
2018-07-14T10:44:53.207Z,7.25
2018-07-14T10:47:27.177Z,10.00
2018-07-14T10:50:01.292Z,9.77
2018-07-14T10:52:37.312Z,8.17
2018-07-14T10:55:09.471Z,8.83
2018-07-14T10:57:43.704Z,8.57
2018-07-14T11:00:19.135Z,8.70
2018-07-14T11:02:52.814Z,7.80
2018-07-14T11:05:26.904Z,7.00
2018-07-14T11:08:02.407Z,9.53
2018-07-14T11:10:36.227Z,7.87
2018-07-14T11:13:09.545Z,10.03
2018-07-14T11:15:43.695Z,8.70
2018-07-14T11:18:18.856Z,11.47
2018-07-14T11:20:52.892Z,10.70
2018-07-14T11:23:26.474Z,10.30
2018-07-14T11:25:59.011Z,15.55
2018-07-14T11:28:33.205Z,11.97
2018-07-14T11:31:08.200Z,11.77
2018-07-14T11:33:42.120Z,11.77
2018-07-14T11:36:15.816Z,15.27
2018-07-14T11:38:48.408Z,11.73
2018-07-14T11:41:22.786Z,15.23
2018-07-14T11:43:56.660Z,9.50
2018-07-14T11:46:30.693Z,12.27
2018-07-14T11:49:04.359Z,11.25
2018-07-14T11:51:38.042Z,9.80
2018-07-14T11:54:10.683Z,12.07
2018-07-14T11:56:44.780Z,13.28
2018-07-14T11:59:18.628Z,10.47
2018-07-14T12:01:52.463Z,15.00
2018-07-14T12:04:26.321Z,14.10
2018-07-14T12:07:00.565Z,11.40
2018-07-14T12:09:34.287Z,14.50
2018-07-14T12:12:07.652Z,11.20
2018-07-14T12:14:41.747Z,13.45
2018-07-14T12:17:15.900Z,10.40
2018-07-14T12:36:08.521Z,9.83
2018-07-14T12:38:42.449Z,11.17
2018-07-14T12:41:16.736Z,10.60
2018-07-14T12:43:50.622Z,13.00
2018-07-14T12:46:24.795Z,11.50
2018-07-14T12:48:58.764Z,14.00
2018-07-14T12:51:33.358Z,11.30
2018-07-14T12:54:07.304Z,15.63
2018-07-14T12:56:41.331Z,13.20
2018-07-14T12:59:15.157Z,11.10
2018-07-14T13:01:49.620Z,12.03
2018-07-14T13:04:23.345Z,12.47
2018-07-14T13:06:57.699Z,9.93
2018-07-14T13:09:31.356Z,13.27
2018-07-14T13:12:05.807Z,11.43
2018-07-14T13:14:39.969Z,13.40
2018-07-14T13:17:14.008Z,11.88
2018-07-14T13:19:48.160Z,16.77
2018-07-14T13:22:23.535Z,11.03
2018-07-14T13:24:57.672Z,9.67
2018-07-14T13:27:32.626Z,11.63
2018-07-14T13:30:07.940Z,11.43
2018-07-14T13:32:41.736Z,11.63
2018-07-14T13:35:16.998Z,11.57
2018-07-14T13:37:51.029Z,9.80
2018-07-14T13:40:25.154Z,11.47
2018-07-14T13:42:58.895Z,9.63
2018-07-14T13:45:33.542Z,13.07
2018-07-14T13:48:07.642Z,9.83
2018-07-14T13:50:41.303Z,9.17
2018-07-14T13:53:15.296Z,9.63
2018-07-14T13:55:50.317Z,11.07
2018-07-14T13:58:24.392Z,11.03
2018-07-14T14:00:58.415Z,11.07
2018-07-14T14:03:32.761Z,12.58
2018-07-14T14:06:07.793Z,11.27
2018-07-14T14:08:41.827Z,11.00
2018-07-14T14:11:15.981Z,12.65
2018-07-14T14:13:51.022Z,12.70
2018-07-14T14:16:24.951Z,10.97
2018-07-14T14:19:00.033Z,10.10
2018-07-14T14:21:33.516Z,10.57
2018-07-14T14:24:09.957Z,12.33
2018-07-14T14:26:43.783Z,13.57
2018-07-14T14:29:17.561Z,12.73
2018-07-14T14:31:51.894Z,10.23
2018-07-14T14:34:25.814Z,11.93
2018-07-14T14:37:00.227Z,11.90
2018-07-14T14:39:35.064Z,15.63
2018-07-14T14:42:09.141Z,9.43
2018-07-14T14:44:43.183Z,12.03
2018-07-14T14:47:16.912Z,10.77
2018-07-14T14:49:51.252Z,15.13
2018-07-14T14:52:25.266Z,11.10
2018-07-14T14:54:59.589Z,10.57
2018-07-14T14:57:33.725Z,12.37
2018-07-14T15:00:07.887Z,15.80
2018-07-14T15:02:42.058Z,8.68
2018-07-14T15:05:16.171Z,7.90
2018-07-14T15:07:48.902Z,9.45
2018-07-14T15:10:22.830Z,6.23
2018-07-14T15:12:56.951Z,7.43
2018-07-14T15:15:30.742Z,8.57
2018-07-14T15:18:04.482Z,8.05
2018-07-14T15:20:38.520Z,6.80
2018-07-14T15:23:12.112Z,7.17
2018-07-14T15:25:48.896Z,9.43
2018-07-14T15:28:23.435Z,12.53
2018-07-14T15:30:57.092Z,9.87
2018-07-14T15:33:29.566Z,8.10
2018-07-14T15:36:03.464Z,9.53
2018-07-14T15:38:36.050Z,10.30
2018-07-14T15:41:10.118Z,10.17
2018-07-14T15:43:44.277Z,7.33
2018-07-14T15:46:18.543Z,7.47
2018-07-14T15:48:52.364Z,7.23
2018-07-14T15:51:26.819Z,8.68
2018-07-14T15:54:00.719Z,9.50
2018-07-14T15:56:34.559Z,9.03
2018-07-14T15:59:08.632Z,8.93
2018-07-14T16:01:40.888Z,7.53
2018-07-14T16:04:14.503Z,6.73
2018-07-14T16:06:48.694Z,8.53
2018-07-14T16:09:22.506Z,7.58
2018-07-14T16:11:56.489Z,11.30
2018-07-14T16:14:30.012Z,7.07
2018-07-14T16:17:04.336Z,7.80
2018-07-14T16:19:38.197Z,7.87
2018-07-14T16:22:12.680Z,8.33
2018-07-14T16:24:46.787Z,7.67
2018-07-14T16:27:22.385Z,8.47
2018-07-14T16:29:56.482Z,7.10
2018-07-14T16:32:30.059Z,10.87
2018-07-14T16:35:04.675Z,9.33
2018-07-14T16:37:38.999Z,8.50
2018-07-14T16:40:12.816Z,8.87
2018-07-14T16:42:45.256Z,10.40
2018-07-14T16:45:19.096Z,9.83
2018-07-14T16:47:53.018Z,6.53
2018-07-14T16:50:27.010Z,8.27
2018-07-14T16:53:01.324Z,9.45
2018-07-14T16:55:35.802Z,9.87
2018-07-14T16:58:09.401Z,5.90
2018-07-14T17:00:43.518Z,6.80
2018-07-14T17:03:17.309Z,6.67
2018-07-14T17:05:51.371Z,8.23
2018-07-14T17:08:25.366Z,6.77
2018-07-14T17:11:01.040Z,6.58
2018-07-14T17:13:35.138Z,5.10
2018-07-14T17:16:09.204Z,6.55
2018-07-14T17:18:41.868Z,4.13
2018-07-14T17:21:14.843Z,6.40
2018-07-14T17:23:48.631Z,5.43
2018-07-14T17:26:23.149Z,5.73
2018-07-14T17:28:58.192Z,5.37
2018-07-14T17:31:32.332Z,8.03
2018-07-14T17:34:11.389Z,6.97
2018-07-14T17:36:45.238Z,8.97
2018-07-14T17:39:57.503Z,10.13
2018-07-14T17:42:31.763Z,6.80
2018-07-14T17:45:06.074Z,9.53
2018-07-14T17:47:40.311Z,7.23
2018-07-14T17:50:14.194Z,5.53
2018-07-14T17:52:48.042Z,9.00
2018-07-14T17:55:22.399Z,10.90
2018-07-14T17:57:56.401Z,10.70
2018-07-14T18:00:30.167Z,8.40
2018-07-14T18:03:04.201Z,13.10
2018-07-14T18:05:38.861Z,8.03
2018-07-14T18:08:13.049Z,10.00
2018-07-14T18:10:46.681Z,8.70
2018-07-14T18:13:20.241Z,10.13
2018-07-14T18:15:54.391Z,8.10
2018-07-14T18:18:28.159Z,9.87
2018-07-14T18:21:02.153Z,10.37
2018-07-14T18:23:36.020Z,8.87
2018-07-14T18:26:10.142Z,11.63
2018-07-14T18:28:44.362Z,12.23
2018-07-14T18:31:19.479Z,9.40
2018-07-14T18:33:53.321Z,8.67
2018-07-14T18:36:27.526Z,10.67
2018-07-14T18:39:01.468Z,8.07
2018-07-14T18:41:35.329Z,8.57
2018-07-14T18:44:09.966Z,9.27
2018-07-14T18:46:43.890Z,10.60
2018-07-14T18:49:16.309Z,8.23
2018-07-14T18:51:51.071Z,9.30
2018-07-14T18:54:24.487Z,11.93
2018-07-14T18:56:58.269Z,6.57
2018-07-14T18:59:32.388Z,11.13
2018-07-14T19:02:06.184Z,9.20
2018-07-14T19:04:39.991Z,10.57
2018-07-14T19:07:13.949Z,10.40
2018-07-14T19:09:47.926Z,9.87
2018-07-14T19:12:21.326Z,9.07
2018-07-14T19:14:55.809Z,7.93
2018-07-14T19:17:29.734Z,11.77
2018-07-14T19:20:03.557Z,11.70
2018-07-14T19:22:38.748Z,10.70
2018-07-14T19:25:12.233Z,11.20
2018-07-14T19:27:46.219Z,13.20
2018-07-14T19:30:19.921Z,12.63
2018-07-14T19:32:53.254Z,10.70
2018-07-14T19:35:27.228Z,10.07
2018-07-14T19:38:00.769Z,11.23
2018-07-14T19:40:39.174Z,12.10
2018-07-14T19:43:11.390Z,11.43
2018-07-14T19:45:45.361Z,8.47
2018-07-14T19:48:19.282Z,11.17
2018-07-14T19:50:53.915Z,9.67
2018-07-14T19:53:27.798Z,10.10
2018-07-14T19:56:02.916Z,11.13
2018-07-14T19:58:37.089Z,10.07
2018-07-14T20:01:11.007Z,9.40
2018-07-14T20:03:45.018Z,11.13
2018-07-14T20:06:18.685Z,13.95
2018-07-14T20:08:52.750Z,11.13
2018-07-14T20:11:27.671Z,8.53
2018-07-14T20:14:01.480Z,9.17
2018-07-14T20:16:35.400Z,8.30
2018-07-14T20:19:09.129Z,8.10
2018-07-14T20:21:42.654Z,7.57
2018-07-14T20:24:17.474Z,10.27
2018-07-14T20:26:51.138Z,10.00
2018-07-14T20:29:24.625Z,7.78
2018-07-14T20:31:58.361Z,10.43
2018-07-14T20:34:36.095Z,8.27
2018-07-14T20:37:09.891Z,10.63
2018-07-14T20:39:44.038Z,10.73
2018-07-14T20:42:18.039Z,7.80
2018-07-14T20:44:52.432Z,10.43
2018-07-14T20:47:26.172Z,11.43
2018-07-14T20:50:00.300Z,11.60
2018-07-14T20:52:34.007Z,11.20
2018-07-14T20:55:08.288Z,8.70
2018-07-14T20:57:41.717Z,11.63
2018-07-14T21:00:14.266Z,9.97
2018-07-14T21:02:48.372Z,8.80
2018-07-14T21:05:22.300Z,8.27
2018-07-14T21:07:56.939Z,8.90
2018-07-14T21:10:31.769Z,9.47
2018-07-14T21:13:05.611Z,8.95
2018-07-14T21:15:39.617Z,9.97
2018-07-14T21:18:13.390Z,8.53
2018-07-14T21:20:46.752Z,9.03
2018-07-14T21:23:21.734Z,14.00
2018-07-14T21:25:56.145Z,8.17
2018-07-14T21:28:30.049Z,9.00
2018-07-14T21:31:04.006Z,14.43
2018-07-14T21:33:38.844Z,8.08
2018-07-14T21:36:13.964Z,8.30
2018-07-14T21:38:46.694Z,9.50
2018-07-14T21:41:20.355Z,7.60
2018-07-14T21:43:53.791Z,8.93
2018-07-14T21:46:25.868Z,13.37
2018-07-14T21:49:00.148Z,7.50
2018-07-14T21:51:33.927Z,8.90
2018-07-14T21:54:08.025Z,10.07
2018-07-14T21:56:42.164Z,8.93
2018-07-14T21:59:16.109Z,11.20
2018-07-14T22:01:55.040Z,8.75
2018-07-14T22:04:29.088Z,8.23
2018-07-14T22:07:03.540Z,8.75
2018-07-14T22:09:37.060Z,8.00
2018-07-14T22:12:09.478Z,8.47
2018-07-14T22:14:43.188Z,10.03
2018-07-14T22:17:16.520Z,9.00
2018-07-14T22:19:50.292Z,10.93
2018-07-14T22:22:23.959Z,12.77
2018-07-14T22:24:57.860Z,9.60
2018-07-14T22:27:32.021Z,8.43
2018-07-14T22:30:05.893Z,8.77
2018-07-14T22:32:39.091Z,7.77
2018-07-14T22:35:13.253Z,8.70
2018-07-14T22:37:48.663Z,8.30
2018-07-14T22:40:22.636Z,8.40
2018-07-14T22:42:56.500Z,12.20
2018-07-14T22:45:30.577Z,8.33
2018-07-14T22:48:04.510Z,9.93
2018-07-14T22:50:38.085Z,7.47
2018-07-14T22:53:12.323Z,7.80
2018-07-14T22:55:46.555Z,7.93
2018-07-14T22:58:20.071Z,11.50
2018-07-14T23:00:53.703Z,8.57
2018-07-14T23:03:27.717Z,8.23
2018-07-14T23:06:01.222Z,11.13
2018-07-14T23:08:34.924Z,11.68
2018-07-14T23:11:08.944Z,11.88
2018-07-14T23:13:42.590Z,9.90
2018-07-14T23:16:14.907Z,11.17
2018-07-14T23:18:48.726Z,7.80
2018-07-14T23:21:23.318Z,7.60
2018-07-14T23:23:56.938Z,8.53
2018-07-14T23:26:30.851Z,6.90
2018-07-14T23:29:06.282Z,8.88
2018-07-14T23:31:38.700Z,6.63
2018-07-14T23:34:12.721Z,6.55
2018-07-14T23:36:46.848Z,9.53
2018-07-14T23:56:07.603Z,7.75
2018-07-14T23:58:41.719Z,7.43
